01:01
Airports
History
Links
Donate
Help keep this website running!
PayPal
Bitcoin
This page is community maintained. The information is intended for PC simulator navigation or reference.
Always use approved charts for navigation.
EGFF
Cardiff
Cardiff (EGFF)
Rhoose, United Kingdom
(C)
Lat/Lng:51° 23' 47.63" N / 3° 20' 35.53" W
51.396565 / -3.343202
Elevation:220'ft / 67mMSL
ID / ICAO:EGFF
Runways:1
Longest:12-30
Asphalt 2,382m / 7,814ft
Controlled:Yes
METAR00:50 GMT 2017-11-18
Altimeter: 30.33
Visibility: 6.2 statute miles
Wind: 6 knots (from 280°)
Temp: 7°c / 45°f
Humidity: 81.2%

METAR: EGFF 180050Z AUTO 28006KT 9999 OVC022 07/04 Q1027

(Powered by phpweather)
Airport Radio Frequencies
Cardiff Information: 132.48
Ground: 125.85
Tower: 133.1
Approach: 119.15
Nearby VORs <50NM
Nearby NDBs
Runway 12 / 30
Dimensions:2381.8 x 39.9m 7814' x 131'ft
Surface:Asphalt
Edge Lights:High intensity
Runway 12 [A]Runway 30 [B]
Heading:116°TH 296°TH
Lat:
Lng:
51° 24' 5.07"N
3° 21' 30.77"W
51° 23' 30.2"N
3° 19' 40.28"W
ALS:CalvertCalvert
TDZ:Yes, lighted
User Notes and Comments
51° 23' 47.63" N / 3° 20' 35.53" W
Distance To
Airport ID:
Nearby Airports
(C) RAF St Athan 3.9 NM
EGDX ( WX ) W 278°
(C) Bristol International 26.9 NM
EGGD E 92°
(U) Westbury Sub Mendip 29.1 NM
EGX2 ESE 113°
(C) Bristol Filton 33.5 NM
EGTG ( WX ) ENE 75°
(C) Swansea 34.4 NM
EGFH WNW 294°
(C) RNAS Merryfield 34.6 NM
EGDW SSE 149°
4 Clutton Hill Farm 35.7 NM
EG21 E 95°
VFR Chart
Flight Planning at SkyVector.com